Time;durP1;ratioP1;P1;durP2;ratioP2;P2;SDS_P1;SDS_P2;PMS_P1;PMS_P2;Temp;Humidity;BMP_temperature;BMP_pressure;BME280_temperature;BME280_humidity;BME280_pressure;Samples;Min_cycle;Max_cycle;Signal;HPM_P1;HPM_P2
2022/10/10 00:01:42;;;;;;;;;;;;;;;13.27;100.00;98146.00;5094371;28;20000;-71
2022/10/10 00:04:08;;;;;;;;;;;;;;;13.23;100.00;98139.56;5091931;28;19924;-71
2022/10/10 00:06:35;;;;;;;;;;;;;;;13.18;100.00;98143.09;5074987;28;20012;-71
2022/10/10 00:09:01;;;;;;;;;;;;;;;13.17;100.00;98140.66;5076092;28;19925;-71
2022/10/10 00:11:28;;;;;;;;;;;;;;;13.22;100.00;98135.25;5093553;28;19960;-70
2022/10/10 00:13:54;;;;;;;;;;;;;;;13.22;100.00;98137.94;5077725;28;19925;-70
2022/10/10 00:16:22;;;;;;;;;;;;;;;13.23;100.00;98132.31;5074482;28;19993;-70
2022/10/10 00:18:48;;;;;;;;;;;;;;;13.24;100.00;98135.81;5073211;28;19964;-70
2022/10/10 00:21:15;;;;;;;;;;;;;;;13.21;100.00;98131.00;5077411;28;19934;-70
2022/10/10 00:23:41;;;;;;;;;;;;;;;13.20;100.00;98137.44;5076382;28;20016;-70
2022/10/10 00:26:08;;;;;;;;;;;;;;;13.09;100.00;98142.00;5075647;28;20446;-71
2022/10/10 00:28:37;;;;;;;;;;;;;;;13.03;100.00;98139.63;5074231;28;19936;-71
2022/10/10 00:31:03;;;;;;;;;;;;;;;12.96;100.00;98138.03;5075413;28;19935;-70
2022/10/10 00:33:31;;;;;;;;;;;;;;;12.99;100.00;98134.78;5077554;28;19932;-69
2022/10/10 00:35:57;;;;;;;;;;;;;;;13.05;100.00;98140.13;5077141;28;19929;-70
2022/10/10 00:38:24;;;;;;;;;;;;;;;13.06;100.00;98136.38;5074149;28;20496;-71
2022/10/10 00:40:51;;;;;;;;;;;;;;;13.10;100.00;98135.59;5073949;28;19924;-70
2022/10/10 00:43:18;;;;;;;;;;;;;;;13.12;100.00;98136.09;5077243;28;19933;-69
2022/10/10 00:45:45;;;;;;;;;;;;;;;13.11;100.00;98131.03;5077457;28;20174;-70
2022/10/10 00:48:13;;;;;;;;;;;;;;;13.14;100.00;98120.56;5074857;28;19951;-70
2022/10/10 00:50:44;;;;;;;;;;;;;;;13.14;100.00;98128.59;5073717;28;19925;-70
2022/10/10 00:53:13;;;;;;;;;;;;;;;13.15;100.00;98129.41;5075868;28;19972;-70
2022/10/10 00:55:39;;;;;;;;;;;;;;;13.16;100.00;98121.06;5077566;28;19935;-70
2022/10/10 00:58:07;;;;;;;;;;;;;;;13.14;100.00;98120.56;5076321;28;20007;-70
2022/10/10 01:00:34;;;;;;;;;;;;;;;13.17;100.00;98124.56;5073087;28;19939;-70
2022/10/10 01:03:00;;;;;;;;;;;;;;;13.15;100.00;98124.06;5075201;28;19996;-70
2022/10/10 01:05:27;;;;;;;;;;;;;;;13.17;100.00;98125.38;5075241;28;20008;-70
2022/10/10 01:07:55;;;;;;;;;;;;;;;13.16;100.00;98129.13;5075570;28;19928;-70
2022/10/10 01:10:23;;;;;;;;;;;;;;;13.14;100.00;98127.81;5073524;28;19924;-70
2022/10/10 01:12:56;;;;;;;;;;;;;;;13.15;100.00;98121.38;5073004;28;19935;-70
2022/10/10 01:15:25;;;;;;;;;;;;;;;13.11;100.00;98122.97;5065552;28;19968;-70
2022/10/10 01:17:54;;;;;;;;;;;;;;;13.11;100.00;98115.75;5073522;28;19936;-70
2022/10/10 01:20:29;;;;;;;;;;;;;;;13.12;100.00;98116.56;5065121;28;19925;-70
2022/10/10 01:23:07;;;;;;;;;;;;;;;13.08;100.00;98104.72;5073842;28;19929;-70
2022/10/10 01:25:42;;;;;;;;;;;;;;;13.05;100.00;98107.97;5077322;28;19964;-70
2022/10/10 01:28:13;;;;;;;;;;;;;;;13.06;100.00;98105.00;5074614;28;19948;-69
2022/10/10 01:30:41;;;;;;;;;;;;;;;13.11;100.00;98105.03;5073217;28;19925;-70
2022/10/10 01:33:12;;;;;;;;;;;;;;;13.10;100.00;98107.97;5075049;28;19957;-69
2022/10/10 01:35:46;;;;;;;;;;;;;;;13.09;100.00;98107.16;5076584;28;19938;-70
2022/10/10 01:38:19;;;;;;;;;;;;;;;13.01;100.00;98105.03;5074127;28;19974;-69
2022/10/10 01:40:48;;;;;;;;;;;;;;;13.05;100.00;98103.41;5073261;28;19998;-69
2022/10/10 01:43:16;;;;;;;;;;;;;;;13.06;100.00;98104.22;5076109;28;19955;-70
2022/10/10 01:45:48;;;;;;;;;;;;;;;13.06;100.00;98101.53;5076525;28;20261;-69
2022/10/10 01:48:15;;;;;;;;;;;;;;;13.05;100.00;98102.59;5073339;28;19924;-70
2022/10/10 01:50:59;;;;;;;;;;;;;;;13.05;100.00;98102.59;5073078;28;20366;-70
2022/10/10 01:53:30;;;;;;;;;;;;;;;13.00;100.00;98101.53;5062992;28;19925;-71
2022/10/10 01:56:00;;;;;;;;;;;;;;;12.91;100.00;98095.13;5091260;28;19930;-70
2022/10/10 01:58:38;;;;;;;;;;;;;;;12.84;100.00;98089.25;5072449;28;19925;-70
2022/10/10 02:01:10;;;;;;;;;;;;;;;12.71;100.00;98089.84;5074283;28;19988;-70
2022/10/10 02:03:38;;;;;;;;;;;;;;;12.67;100.00;98087.97;5076170;28;19928;-70
2022/10/10 02:06:07;;;;;;;;;;;;;;;12.75;100.00;98090.88;5075248;28;19925;-70
2022/10/10 02:08:35;;;;;;;;;;;;;;;12.83;100.00;98092.22;5077396;28;19957;-70
2022/10/10 02:11:03;;;;;;;;;;;;;;;12.84;100.00;98083.88;5077847;28;19970;-70
2022/10/10 02:13:33;;;;;;;;;;;;;;;12.65;100.00;98079.41;5080300;28;19970;-70
2022/10/10 02:16:01;;;;;;;;;;;;;;;12.34;100.00;98079.47;5079355;28;19959;-70
2022/10/10 02:18:30;;;;;;;;;;;;;;;12.41;100.00;98082.66;5076235;28;19932;-70
2022/10/10 02:20:57;;;;;;;;;;;;;;;12.53;100.00;98082.38;5075565;28;19963;-69
2022/10/10 02:23:23;;;;;;;;;;;;;;;12.66;100.00;98081.81;5079718;28;19935;-70
2022/10/10 02:25:52;;;;;;;;;;;;;;;12.75;100.00;98082.84;5080013;28;19955;-70
2022/10/10 02:28:21;;;;;;;;;;;;;;;12.84;100.00;98083.88;5068220;28;19996;-70
2022/10/10 02:30:49;;;;;;;;;;;;;;;12.84;100.00;98081.22;5074954;28;19925;-70
2022/10/10 02:33:18;;;;;;;;;;;;;;;12.81;100.00;98078.28;5079377;28;20338;-70
2022/10/10 02:35:48;;;;;;;;;;;;;;;12.83;100.00;98076.94;5080097;28;19963;-71
2022/10/10 02:38:15;;;;;;;;;;;;;;;12.86;100.00;98084.44;5076968;28;19933;-70
2022/10/10 02:40:42;;;;;;;;;;;;;;;12.89;100.00;98085.75;5074720;28;19996;-70
2022/10/10 02:43:10;;;;;;;;;;;;;;;12.85;100.00;98082.81;5078521;28;19943;-70
2022/10/10 02:45:37;;;;;;;;;;;;;;;12.89;100.00;98086.56;5079739;28;19992;-70
2022/10/10 02:48:03;;;;;;;;;;;;;;;12.65;100.00;98077.53;5078739;28;19925;-70
2022/10/10 02:50:31;;;;;;;;;;;;;;;12.52;100.00;98070.06;5074983;28;19925;-70
2022/10/10 02:52:59;;;;;;;;;;;;;;;12.48;100.00;98071.66;5075617;28;19932;-70
2022/10/10 02:55:26;;;;;;;;;;;;;;;12.48;100.00;98063.63;5079616;28;19951;-70
2022/10/10 02:57:52;;;;;;;;;;;;;;;12.57;100.00;98066.53;5079312;28;20527;-69
2022/10/10 03:00:19;;;;;;;;;;;;;;;12.65;100.00;98069.50;5067767;28;19925;-69
2022/10/10 03:02:46;;;;;;;;;;;;;;;12.72;100.00;98075.34;5075839;28;19984;-69
2022/10/10 03:05:12;;;;;;;;;;;;;;;12.76;100.00;98065.69;5078519;28;20003;-70
2022/10/10 03:07:39;;;;;;;;;;;;;;;12.78;100.00;98063.53;5079292;28;19960;-71
2022/10/10 03:10:07;;;;;;;;;;;;;;;12.78;100.00;98066.22;5077518;28;20000;-71
2022/10/10 03:12:33;;;;;;;;;;;;;;;12.79;100.00;98075.88;5091198;28;19931;-71
2022/10/10 03:15:00;;;;;;;;;;;;;;;12.77;100.00;98071.88;5076596;28;19940;-71
2022/10/10 03:17:28;;;;;;;;;;;;;;;12.83;100.00;98079.63;5078228;28;20388;-70
2022/10/10 03:19:54;;;;;;;;;;;;;;;12.77;100.00;98079.91;5079716;28;19952;-70
2022/10/10 03:22:20;;;;;;;;;;;;;;;12.80;100.00;98071.31;5076380;28;20028;-70
2022/10/10 03:24:47;;;;;;;;;;;;;;;12.82;100.00;98080.69;5074904;28;20003;-70
2022/10/10 03:27:15;;;;;;;;;;;;;;;12.79;100.00;98091.16;5078373;28;19934;-70
2022/10/10 03:29:41;;;;;;;;;;;;;;;12.79;100.00;98083.09;5078922;28;19928;-69
2022/10/10 03:32:07;;;;;;;;;;;;;;;12.81;100.00;98086.34;5077054;28;19924;-69
2022/10/10 03:34:34;;;;;;;;;;;;;;;12.81;100.00;98084.44;5075271;28;20445;-69
2022/10/10 03:37:00;;;;;;;;;;;;;;;12.73;100.00;98071.59;5074984;28;19997;-70
2022/10/10 03:39:27;;;;;;;;;;;;;;;12.83;100.00;98070.78;5078767;28;19920;-69
2022/10/10 03:41:53;;;;;;;;;;;;;;;12.73;100.00;98071.59;5078404;28;19951;-70
2022/10/10 03:44:21;;;;;;;;;;;;;;;12.76;100.00;98076.41;5045503;28;19936;-70
2022/10/10 03:46:48;;;;;;;;;;;;;;;12.71;100.00;98068.41;5071123;28;19925;-70
2022/10/10 03:49:14;;;;;;;;;;;;;;;12.73;100.00;98071.59;5078086;28;19939;-71
2022/10/10 03:51:41;;;;;;;;;;;;;;;12.66;100.00;98065.72;5078890;28;19935;-71
2022/10/10 03:54:07;;;;;;;;;;;;;;;12.59;100.00;98070.59;5076803;28;19924;-69
2022/10/10 03:56:33;;;;;;;;;;;;;;;12.61;100.00;98073.78;5075429;28;19988;-69
2022/10/10 03:59:02;;;;;;;;;;;;;;;12.63;100.00;98076.97;5075776;28;19935;-70
2022/10/10 04:01:30;;;;;;;;;;;;;;;12.64;100.00;98070.56;5094011;28;19925;-70
2022/10/10 04:03:57;;;;;;;;;;;;;;;12.68;100.00;98062.78;5078087;28;19932;-70
2022/10/10 04:06:23;;;;;;;;;;;;;;;12.71;100.00;98064.91;5075481;28;19925;-70
2022/10/10 04:08:50;;;;;;;;;;;;;;;12.68;100.00;98070.81;5073770;28;19935;-69
2022/10/10 04:11:16;;;;;;;;;;;;;;;12.67;100.00;98078.06;5077769;28;19938;-70
2022/10/10 04:13:42;;;;;;;;;;;;;;;12.63;100.00;98076.97;5078757;28;19924;-70
2022/10/10 04:16:09;;;;;;;;;;;;;;;12.62;100.00;98070.03;5076483;28;20111;-70
2022/10/10 04:18:36;;;;;;;;;;;;;;;12.57;100.00;98077.25;5074842;28;19929;-70
2022/10/10 04:21:03;;;;;;;;;;;;;;;12.59;100.00;98075.13;5077079;28;19935;-70
2022/10/10 04:23:29;;;;;;;;;;;;;;;12.61;100.00;98067.63;5078715;28;20003;-70
2022/10/10 04:25:56;;;;;;;;;;;;;;;12.62;100.00;98072.72;5093748;28;19988;-70
2022/10/10 04:28:22;;;;;;;;;;;;;;;12.52;100.00;98066.56;5074772;28;19993;-69
2022/10/10 04:30:48;;;;;;;;;;;;;;;12.58;100.00;98068.16;5074664;28;19988;-69
2022/10/10 04:33:15;;;;;;;;;;;;;;;12.56;100.00;98070.31;5077650;28;19960;-69
2022/10/10 04:35:43;;;;;;;;;;;;;;;12.60;100.00;98072.16;5078400;28;20542;-69
2022/10/10 04:38:09;;;;;;;;;;;;;;;12.57;100.00;98067.34;5076230;28;19951;-70
2022/10/10 04:40:36;;;;;;;;;;;;;;;12.58;100.00;98068.16;5074879;28;19952;-70
2022/10/10 04:43:02;;;;;;;;;;;;;;;12.53;100.00;98069.00;5075775;28;19925;-68
2022/10/10 04:45:29;;;;;;;;;;;;;;;12.57;100.00;98063.88;5093477;28;19975;-69
2022/10/10 04:47:55;;;;;;;;;;;;;;;12.52;100.00;98071.94;5077610;28;19925;-69
2022/10/10 04:50:22;;;;;;;;;;;;;;;12.39;100.00;98065.25;5074227;28;19932;-69
2022/10/10 04:52:50;;;;;;;;;;;;;;;12.38;100.00;98059.09;5074381;28;19928;-69
2022/10/10 04:55:16;;;;;;;;;;;;;;;12.40;100.00;98073.03;5077468;28;19956;-69
2022/10/10 04:57:43;;;;;;;;;;;;;;;12.39;100.00;98067.94;5076301;28;19973;-70
2022/10/10 05:00:10;;;;;;;;;;;;;;;12.47;100.00;98067.41;5075571;28;19935;-69
2022/10/10 05:02:36;;;;;;;;;;;;;;;12.48;100.00;98068.97;5090131;28;19980;-69
2022/10/10 05:05:03;;;;;;;;;;;;;;;12.47;100.00;98078.13;5075615;28;19932;-70
2022/10/10 05:07:29;;;;;;;;;;;;;;;12.48;100.00;98070.84;5077632;28;19991;-70
2022/10/10 05:09:57;;;;;;;;;;;;;;;12.49;100.00;98069.78;5076968;28;19960;-70
2022/10/10 05:12:23;;;;;;;;;;;;;;;12.48;100.00;98074.34;5072710;28;19924;-70
2022/10/10 05:14:50;;;;;;;;;;;;;;;12.54;100.00;98072.44;5074307;28;20083;-70
2022/10/10 05:17:16;;;;;;;;;;;;;;;12.53;100.00;98076.22;5077106;28;19924;-70
2022/10/10 05:19:42;;;;;;;;;;;;;;;12.44;100.00;98074.06;5077545;28;19943;-70
2022/10/10 05:22:09;;;;;;;;;;;;;;;12.25;100.00;98067.69;5075589;28;19931;-68
2022/10/10 05:24:35;;;;;;;;;;;;;;;12.21;100.00;98077.34;5073422;28;19929;-69
2022/10/10 05:27:03;;;;;;;;;;;;;;;12.03;100.00;98072.53;5075108;28;20000;-70
2022/10/10 05:29:29;;;;;;;;;;;;;;;11.88;100.00;98075.19;5076788;28;19960;-70
2022/10/10 05:31:55;;;;;;;;;;;;;;;11.87;100.00;98079.75;5076650;28;19924;-69
2022/10/10 05:34:22;;;;;;;;;;;;;;;11.91;100.00;98083.47;5072390;28;19988;-70
2022/10/10 05:36:48;;;;;;;;;;;;;;;12.02;100.00;98089.66;5073702;28;20147;-70
2022/10/10 05:39:14;;;;;;;;;;;;;;;12.14;100.00;98089.38;5076648;28;19959;-70
2022/10/10 05:41:41;;;;;;;;;;;;;;;12.20;100.00;98104.34;5076607;28;19989;-70
2022/10/10 05:44:09;;;;;;;;;;;;;;;12.25;100.00;98099.03;5075458;28;20019;-68
2022/10/10 05:46:35;;;;;;;;;;;;;;;12.28;100.00;98096.63;5072354;28;19935;-69
2022/10/10 05:49:02;;;;;;;;;;;;;;;12.28;100.00;98101.97;5074450;28;19935;-69
2022/10/10 05:51:28;;;;;;;;;;;;;;;12.33;100.00;98107.31;5076784;28;19990;-69
2022/10/10 05:53:56;;;;;;;;;;;;;;;12.32;100.00;98105.69;5076524;28;19988;-70
2022/10/10 05:56:22;;;;;;;;;;;;;;;12.24;100.00;98105.44;5073346;28;19951;-70
2022/10/10 05:58:50;;;;;;;;;;;;;;;12.17;100.00;98103.03;5073277;28;19928;-70
2022/10/10 06:01:17;;;;;;;;;;;;;;;12.04;100.00;98103.56;5076103;28;19929;-70
2022/10/10 06:03:44;;;;;;;;;;;;;;;11.51;100.00;98110.16;5076805;28;19984;-69
2022/10/10 06:06:10;;;;;;;;;;;;;;;11.23;100.00;98105.25;5074336;28;19988;-69
2022/10/10 06:08:36;;;;;;;;;;;;;;;10.83;100.00;98104.00;5073353;28;19975;-70
2022/10/10 06:11:04;;;;;;;;;;;;;;;10.73;100.00;98114.66;5074419;28;19925;-70
2022/10/10 06:13:30;;;;;;;;;;;;;;;10.77;100.00;98109.56;5076911;28;19976;-70
2022/10/10 06:15:57;;;;;;;;;;;;;;;10.92;100.00;98111.53;5076368;28;19924;-69
2022/10/10 06:18:24;;;;;;;;;;;;;;;10.68;100.00;98111.94;5073321;28;20273;-70
2022/10/10 06:20:51;;;;;;;;;;;;;;;10.63;100.00;98116.44;5073391;28;19991;-70
2022/10/10 06:23:18;;;;;;;;;;;;;;;10.74;100.00;98112.75;5076578;28;19925;-70
2022/10/10 06:25:45;;;;;;;;;;;;;;;10.48;100.00;98127.03;5077025;28;20131;-70
2022/10/10 06:28:13;;;;;;;;;;;;;;;10.57;100.00;98126.31;5074113;28;19979;-70
2022/10/10 06:30:40;;;;;;;;;;;;;;;10.66;100.00;98122.09;5073155;28;19963;-69
2022/10/10 06:33:06;;;;;;;;;;;;;;;10.63;100.00;98127.94;5074726;28;19956;-69
2022/10/10 06:35:34;;;;;;;;;;;;;;;10.66;100.00;98131.97;5076753;28;19925;-70
2022/10/10 06:38:00;;;;;;;;;;;;;;;10.58;100.00;98132.44;5074709;28;19955;-70
2022/10/10 06:40:26;;;;;;;;;;;;;;;10.87;100.00;98132.88;5073290;28;19925;-70
2022/10/10 06:42:53;;;;;;;;;;;;;;;10.73;100.00;98133.34;5073012;28;19925;-70
2022/10/10 06:45:19;;;;;;;;;;;;;;;10.71;100.00;98140.00;5065031;28;19936;-70
2022/10/10 06:47:45;;;;;;;;;;;;;;;10.53;100.00;98143.88;5073250;28;20355;-70
2022/10/10 06:50:12;;;;;;;;;;;;;;;10.46;100.00;98145.97;5074342;28;19960;-70
2022/10/10 06:52:41;;;;;;;;;;;;;;;10.44;100.00;98134.75;5072483;28;19925;-70
2022/10/10 06:55:08;;;;;;;;;;;;;;;10.47;100.00;98144.09;5078462;28;19970;-69
2022/10/10 06:57:34;;;;;;;;;;;;;;;10.50;100.00;98140.91;5079902;28;19924;-69
2022/10/10 07:00:00;;;;;;;;;;;;;;;10.52;100.00;98150.28;5078808;28;19924;-69
2022/10/10 07:02:27;;;;;;;;;;;;;;;10.52;100.00;98157.50;5076233;28;19926;-70
2022/10/10 07:04:53;;;;;;;;;;;;;;;10.41;100.00;98161.97;5076244;28;19936;-69
2022/10/10 07:07:20;;;;;;;;;;;;;;;10.24;100.00;98159.41;5068078;28;19936;-70
2022/10/10 07:09:47;;;;;;;;;;;;;;;10.10;100.00;98162.72;5075994;28;20011;-70
2022/10/10 07:12:14;;;;;;;;;;;;;;;10.02;100.00;98158.69;5078927;28;19928;-71
2022/10/10 07:14:40;;;;;;;;;;;;;;;10.01;100.00;98165.06;5080040;28;20086;-69
2022/10/10 07:17:06;;;;;;;;;;;;;;;10.03;100.00;98168.28;5078235;28;19924;-70
2022/10/10 07:19:33;;;;;;;;;;;;;;;10.05;100.00;98173.38;5075921;28;19992;-70
2022/10/10 07:21:59;;;;;;;;;;;;;;;10.02;100.00;98168.53;5077331;28;19925;-70
2022/10/10 07:24:25;;;;;;;;;;;;;;;10.04;100.00;98177.09;5075993;28;19988;-70
2022/10/10 07:26:54;;;;;;;;;;;;;;;10.04;100.00;98179.75;5075708;28;20519;-69
2022/10/10 07:29:21;;;;;;;;;;;;;;;10.15;100.00;98184.19;5066725;28;19925;-70
2022/10/10 07:31:47;;;;;;;;;;;;;;;10.33;100.00;98178.47;5075833;28;19920;-71
2022/10/10 07:34:14;;;;;;;;;;;;;;;10.28;100.00;98173.06;5077314;28;19928;-70
2022/10/10 07:36:40;;;;;;;;;;;;;;;10.29;100.00;98182.69;5079059;28;19932;-70
2022/10/10 07:39:07;;;;;;;;;;;;;;;10.11;100.00;98183.03;5077392;28;19984;-70
2022/10/10 07:41:33;;;;;;;;;;;;;;;10.09;100.00;98188.59;5075523;28;19989;-70
2022/10/10 07:44:02;;;;;;;;;;;;;;;10.10;100.00;98187.56;5076826;28;19939;-70
2022/10/10 07:46:30;;;;;;;;;;;;;;;10.11;100.00;98177.69;5094932;28;19924;-70
2022/10/10 07:48:56;;;;;;;;;;;;;;;10.05;100.00;98176.03;5078922;28;19931;-70
2022/10/10 07:51:23;;;;;;;;;;;;;;;10.17;100.00;98179.38;5075972;28;19967;-70
2022/10/10 07:53:51;;;;;;;;;;;;;;;10.18;100.00;98181.00;5092144;28;19920;-70
2022/10/10 07:56:17;;;;;;;;;;;;;;;10.22;100.00;98185.56;5076396;28;20019;-71
2022/10/10 07:58:43;;;;;;;;;;;;;;;10.28;100.00;98183.75;5091456;28;19925;-70
2022/10/10 08:01:12;;;;;;;;;;;;;;;10.28;100.00;98183.75;5076559;28;19925;-71
2022/10/10 08:03:38;;;;;;;;;;;;;;;10.34;100.00;98188.06;5078318;28;19925;-70
2022/10/10 08:06:06;;;;;;;;;;;;;;;10.35;100.00;98184.34;5077512;28;19988;-71
2022/10/10 08:08:32;;;;;;;;;;;;;;;10.39;100.00;98182.78;5075526;28;19924;-71
2022/10/10 08:10:59;;;;;;;;;;;;;;;10.50;100.00;98176.44;5075947;28;19963;-71
2022/10/10 08:13:25;;;;;;;;;;;;;;;10.61;100.00;98177.34;5079098;28;19936;-71
2022/10/10 08:15:52;;;;;;;;;;;;;;;10.58;100.00;98183.19;5079203;28;19956;-71
2022/10/10 08:18:20;;;;;;;;;;;;;;;10.48;100.00;98188.44;5074362;28;19924;-71
2022/10/10 08:20:46;;;;;;;;;;;;;;;10.55;100.00;98187.16;5074237;28;19924;-70
2022/10/10 08:23:13;;;;;;;;;;;;;;;10.69;100.00;98185.66;5077744;28;19929;-70
2022/10/10 08:25:39;;;;;;;;;;;;;;;10.91;100.00;98190.09;5077216;28;19924;-70
2022/10/10 08:28:06;;;;;;;;;;;;;;;10.95;100.00;98193.84;5076012;28;19924;-71
2022/10/10 08:30:32;;;;;;;;;;;;;;;11.04;100.00;98193.13;5073816;28;19939;-71
2022/10/10 08:33:00;;;;;;;;;;;;;;;11.05;100.00;98197.38;5074580;28;19931;-71
2022/10/10 08:35:28;;;;;;;;;;;;;;;11.12;100.00;98187.28;5094161;28;20238;-71
2022/10/10 08:37:54;;;;;;;;;;;;;;;11.30;100.00;98200.19;5077315;28;20035;-71
2022/10/10 08:40:22;;;;;;;;;;;;;;;11.32;100.00;98191.91;5073688;28;19932;-70
2022/10/10 08:42:50;;;;;;;;;;;;;;;11.16;100.00;98200.91;5074511;28;19932;-70
2022/10/10 08:45:19;;;;;;;;;;;;;;;11.06;100.00;98199.00;5074280;28;19963;-71
2022/10/10 08:47:48;;;;;;;;;;;;;;;10.91;100.00;98198.91;5075263;28;19979;-71
2022/10/10 08:50:16;;;;;;;;;;;;;;;10.88;100.00;98194.06;5078204;28;19932;-71
2022/10/10 08:52:47;;;;;;;;;;;;;;;11.04;100.00;98187.78;5073044;28;20053;-70
2022/10/10 08:55:16;;;;;;;;;;;;;;;11.21;100.00;98193.72;5077474;28;19925;-71
2022/10/10 08:57:47;;;;;;;;;;;;;;;11.25;100.00;98194.00;5077811;28;19950;-70
2022/10/10 09:00:15;;;;;;;;;;;;;;;11.36;100.00;98188.44;5075014;28;19984;-71
2022/10/10 09:02:45;;;;;;;;;;;;;;;11.37;100.00;98192.75;5089883;28;20425;-71
2022/10/10 09:05:15;;;;;;;;;;;;;;;11.35;100.00;98197.56;5076780;28;19924;-70
2022/10/10 09:07:52;;;;;;;;;;;;;;;11.27;100.00;98197.22;5077794;28;19924;-70
2022/10/10 09:10:21;;;;;;;;;;;;;;;11.31;100.00;98198.31;5073948;28;20235;-70
2022/10/10 09:12:54;;;;;;;;;;;;;;;11.32;100.00;98200.75;5074037;28;19963;-70
2022/10/10 09:15:23;;;;;;;;;;;;;;;11.50;100.00;98199.47;5065738;28;19947;-70
2022/10/10 09:17:56;;;;;;;;;;;;;;;11.39;100.00;98209.31;5074150;28;20015;-70
2022/10/10 09:20:32;;;;;;;;;;;;;;;11.47;100.00;98208.03;5066079;28;20011;-70
2022/10/10 09:23:03;;;;;;;;;;;;;;;11.48;100.00;98201.59;5074712;28;19951;-70
2022/10/10 09:25:31;;;;;;;;;;;;;;;11.59;100.00;98205.94;5077560;28;19966;-70
2022/10/10 09:28:01;;;;;;;;;;;;;;;11.70;100.00;98199.56;5090383;28;19952;-71
2022/10/10 09:30:31;;;;;;;;;;;;;;;11.67;100.00;98204.59;5073927;28;19924;-71
2022/10/10 09:33:01;;;;;;;;;;;;;;;11.68;100.00;98203.56;5074087;28;19929;-70
2022/10/10 09:35:30;;;;;;;;;;;;;;;11.70;100.00;98206.78;5077061;28;20059;-70
2022/10/10 09:38:01;;;;;;;;;;;;;;;11.76;100.00;98205.78;5076843;28;19951;-70
2022/10/10 09:40:32;;;;;;;;;;;;;;;11.69;100.00;98207.84;5072017;28;19925;-71
2022/10/10 09:42:59;;;;;;;;;;;;;;;11.77;100.00;98218.88;5072815;28;19924;-71
2022/10/10 09:45:28;;;;;;;;;;;;;;;11.88;100.00;98215.13;5077328;28;20472;-70
2022/10/10 09:47:55;;;;;;;;;;;;;;;11.87;100.00;98213.56;5077075;28;19935;-71
2022/10/10 09:50:22;;;;;;;;;;;;;;;11.94;100.00;98210.63;5073352;28;20345;-71
2022/10/10 09:52:48;;;;;;;;;;;;;;;12.00;100.00;98211.44;5073400;28;19988;-71
2022/10/10 09:55:19;;;;;;;;;;;;;;;12.07;100.00;98209.31;5075256;28;19928;-71
2022/10/10 09:57:47;;;;;;;;;;;;;;;12.03;100.00;98205.56;5075792;28;19964;-71
2022/10/10 10:00:25;;;;;;;;;;;;;;;12.12;100.00;98209.31;5074335;28;20236;-71
2022/10/10 10:03:03;;;;;;;;;;;;;;;12.12;100.00;98206.66;5073453;28;20401;-71
2022/10/10 10:05:30;;;;;;;;;;;;;;;12.24;100.00;98213.34;5066521;28;19935;-71
2022/10/10 10:07:57;;;;;;;;;;;;;;;12.31;100.00;98202.38;5072103;28;19972;-71
2022/10/10 10:10:25;;;;;;;;;;;;;;;12.36;100.00;98205.06;5077159;28;20256;-71
2022/10/10 10:12:54;;;;;;;;;;;;;;;12.37;100.00;98212.84;5075543;28;19924;-70
2022/10/10 10:15:21;;;;;;;;;;;;;;;12.32;100.00;98210.13;5065763;28;20007;-70
2022/10/10 10:18:08;;;;;;;;;;;;;;;12.30;100.00;98208.81;5072685;28;19931;-70
2022/10/10 10:20:37;;;;;;;;;;;;;;;12.26;100.00;98199.69;5067665;28;19955;-71
2022/10/10 10:23:05;;;;;;;;;;;;;;;12.36;100.00;98205.06;5075156;28;19928;-71
2022/10/10 10:25:32;;;;;;;;;;;;;;;12.39;100.00;98207.19;5077422;28;20177;-71
2022/10/10 10:28:19;;;;;;;;;;;;;;;12.37;100.00;98207.47;5078816;28;19979;-71
2022/10/10 10:30:45;;;;;;;;;;;;;;;12.43;100.00;98206.41;5076910;28;19924;-71
2022/10/10 10:33:18;;;;;;;;;;;;;;;12.45;100.00;98206.94;5079809;28;19941;-70
2022/10/10 10:35:47;;;;;;;;;;;;;;;12.38;100.00;98210.94;5080608;28;19952;-70
2022/10/10 10:38:18;;;;;;;;;;;;;;;12.39;100.00;98209.88;5077913;28;19928;-70
2022/10/10 10:40:49;;;;;;;;;;;;;;;12.47;100.00;98208.56;5077011;28;19967;-70
2022/10/10 10:43:33;;;;;;;;;;;;;;;12.59;100.00;98209.09;5078992;28;19927;-71
2022/10/10 10:46:08;;;;;;;;;;;;;;;12.63;100.00;98205.59;5095312;28;19975;-71
2022/10/10 10:48:39;;;;;;;;;;;;;;;12.57;100.00;98214.72;5077012;28;19925;-71
2022/10/10 10:51:13;;;;;;;;;;;;;;;12.65;100.00;98203.47;5078735;28;19924;-71
2022/10/10 10:53:43;;;;;;;;;;;;;;;12.67;100.00;98203.19;5078949;28;19960;-71
2022/10/10 10:56:17;;;;;;;;;;;;;;;12.76;100.00;98210.41;5079423;28;19963;-70
2022/10/10 10:58:55;;;;;;;;;;;;;;;12.87;100.00;98203.97;5077295;28;19956;-70
2022/10/10 11:01:25;;;;;;;;;;;;;;;12.86;100.00;98198.88;5067413;28;19956;-70
2022/10/10 11:03:59;;;;;;;;;;;;;;;12.94;100.00;98198.31;5076821;28;19978;-71
2022/10/10 11:06:34;;;;;;;;;;;;;;;12.87;100.00;98193.22;5067864;28;19955;-70
2022/10/10 11:09:05;;;;;;;;;;;;;;;12.97;100.00;98193.22;5077581;28;19929;-70
2022/10/10 11:11:39;;;;;;;;;;;;;;;12.96;100.00;98191.63;5078424;28;19924;-70
2022/10/10 11:14:16;;;;;;;;;;;;;;;13.17;100.00;98188.94;5078545;28;19971;-70
2022/10/10 11:16:45;;;;;;;;;;;;;;;13.21;100.00;98180.06;5076415;28;19952;-71
2022/10/10 11:19:17;;;;;;;;;;;;;;;13.21;100.00;98179.28;5078757;28;19925;-71
2022/10/10 11:21:46;;;;;;;;;;;;;;;13.28;100.00;98175.22;5095409;28;19963;-71
2022/10/10 11:24:15;;;;;;;;;;;;;;;13.30;100.00;98177.63;5077149;28;19952;-71
2022/10/10 11:26:44;;;;;;;;;;;;;;;13.33;100.00;98172.53;5075796;28;19963;-71
2022/10/10 11:29:15;;;;;;;;;;;;;;;13.19;100.00;98171.47;5078463;28;19935;-71
2022/10/10 11:31:45;;;;;;;;;;;;;;;13.50;100.00;98169.50;5079540;28;20424;-71
2022/10/10 11:34:16;;;;;;;;;;;;;;;13.51;100.00;98173.78;5077733;28;19925;-71
2022/10/10 11:36:44;;;;;;;;;;;;;;;13.49;100.00;98170.59;5076347;28;19929;-71
2022/10/10 11:39:13;;;;;;;;;;;;;;;13.53;100.00;98177.00;5076157;28;19924;-71
2022/10/10 11:41:42;;;;;;;;;;;;;;;13.60;100.00;98172.13;5079479;28;19959;-70
2022/10/10 11:44:12;;;;;;;;;;;;;;;13.56;100.00;98167.56;5077617;28;19931;-70
2022/10/10 11:46:43;;;;;;;;;;;;;;;13.86;100.00;98170.94;5075782;28;19935;-70
2022/10/10 11:49:16;;;;;;;;;;;;;;;13.92;100.00;98171.69;5078081;28;20202;-70
2022/10/10 11:51:44;;;;;;;;;;;;;;;13.94;100.00;98161.47;5079423;28;19924;-71
2022/10/10 11:54:17;;;;;;;;;;;;;;;14.06;100.00;98164.63;5076921;28;19932;-71
2022/10/10 11:56:45;;;;;;;;;;;;;;;14.16;100.00;98161.06;5074213;28;19958;-71
2022/10/10 11:59:15;;;;;;;;;;;;;;;14.31;100.00;98155.56;5077919;28;19925;-72
2022/10/10 12:01:46;;;;;;;;;;;;;;;14.28;100.00;98164.19;5078882;28;19972;-71
2022/10/10 12:04:13;;;;;;;;;;;;;;;14.35;100.00;98156.66;5076801;28;19935;-71
2022/10/10 12:06:41;;;;;;;;;;;;;;;14.41;100.00;98155.53;5075393;28;20266;-71
2022/10/10 12:09:09;;;;;;;;;;;;;;;14.49;100.00;98152.22;5077241;28;19925;-71
2022/10/10 12:11:38;;;;;;;;;;;;;;;14.52;100.00;98151.66;5077506;28;19946;-71
2022/10/10 12:14:07;;;;;;;;;;;;;;;14.52;100.00;98151.66;5077713;28;19925;-71
2022/10/10 12:16:36;;;;;;;;;;;;;;;14.61;100.00;98154.56;5075810;28;19983;-71
2022/10/10 12:19:05;;;;;;;;;;;;;;;14.63;100.00;98147.81;5076276;28;19947;-72
2022/10/10 12:21:32;;;;;;;;;;;;;;;14.53;100.00;98147.91;5078498;28;19931;-71
2022/10/10 12:24:03;;;;;;;;;;;;;;;14.48;100.00;98150.63;5078171;28;19932;-71
2022/10/10 12:26:45;;;;;;;;;;;;;;;14.53;100.00;98150.59;5074123;28;19947;-71
2022/10/10 12:29:11;;;;;;;;;;;;;;;14.59;100.00;98138.69;5078981;28;19925;-72
2022/10/10 12:31:38;;;;;;;;;;;;;;;14.58;100.00;98148.66;5095046;28;19964;-71
2022/10/10 12:34:10;;;;;;;;;;;;;;;14.57;100.00;98143.56;5078147;28;19939;-71
2022/10/10 12:37:03;;;;;;;;;;;;;;;14.62;100.00;98142.72;5075689;28;19929;-71
2022/10/10 12:39:37;;;;;;;;;;;;;;;14.64;100.00;98144.03;5068024;28;19931;-71
2022/10/10 12:42:03;;;;;;;;;;;;;;;14.61;100.00;98139.22;5076844;28;19955;-71